Philadelphia, PA

8:30 PM EST on January 23, 2017 (GMT -0500)
Society Hill, Philadelphia | | Change Station
Active Advisory: Gale Warning Active Notice: Public Information Statement

Elev 43 ft 39.94 °N, 75.15 °W | Updated 44 seconds ago

Overcast
Overcast
38.6 °F
Feels Like 31 °F
N
12.0
Wind Variable Wind from ENE
Gusts 19.0 mph

Today
High -- | Low -- °F
--% Chance of Precip.
Yesterday
High -- | Low -- °F
Precip. -- in
Pressure 29.52 in
Visibility 10.0 miles
Clouds Mostly Cloudy 1700 ft
Overcast 2300 ft
Windchill 31 °F
Dew Point 36 °F
Humidity 89%
Rainfall 0.70 in
Snow Depth Not available.
7:16 AM 5:09 PM
Waning Crescent, 15% visible
METAR KPHL 240054Z 05021G27KT 10SM BKN017 OVC023 04/01 A2952 RMK AO2 PK WND 05036/0036 SLP995 T00390011
Pressure 29.52 in
Visibility 10.0 miles
Clouds Mostly Cloudy 1700 ft
Overcast 2300 ft
Windchill 31 °F
Dew Point 36 °F
Humidity 89%
Rainfall 0.70 in
Snow Depth Not available.
7:16 AM 5:09 PM
Waning Crescent, 15% visible
METAR KPHL 240054Z 05021G27KT 10SM BKN017 OVC023 04/01 A2952 RMK AO2 PK WND 05036/0036 SLP995 T00390011

Get Your Daily Forecast Email!

Thanks for signing up!

Be on the lookout for a verification email in your inbox.

You'll start receiving the daily forecast at 8 AM.

×

10-Day Weather Forecast

Almanac

Astronomy

Jan. 23, 2017 Rise Set
Actual Time
Civil Twilight
Nautical Twilight
Astronomical Twilight
Moon
Length of Visible Light
Length of Day
Tomorrow will be .
, % of the Moon is Illuminated

Today's Extremes

State Highs State Lows

Community

WunderPhotos

Upload Photos

1,962,540 photos uploaded!

WunderBlog® & News

Nearby

Air Quality

  Air Quality AQ Index Pollutant
Not available.

Snow Depth

Station Depth Elevation

Earthquake Activity

City Distance Mag. Time & Date
Minimum magnitude displayed is 2.5.

Coastal Water Temperatures

Place Temperature

Stations

Nearby Weather Stations

Station Location Temp. Windchill Dew Point Humidity Wind Precip. Elev Updated Type
                   

Watches & Warnings

Gale Warning
Issued: 7:41 PM EST Jan. 23, 2017 – National Weather Service

... Gale Warning now in effect until 1 am EST Tuesday...

* winds... northeast 20 to 25 kt with gusts up to 40 kt.

* Seas... 3 to 4 feet.

Precautionary/preparedness actions...

A Gale Warning means winds of 34 to 47 knots are imminent or
occurring. Operating a vessel in gale conditions requires
experience and properly equipped vessels. It is highly
recommended that mariners without the proper experience seek safe
Harbor prior to the onset of gale conditions.